Emilio Lamarca, Argentina
Current Conditions -  °F | °C
As of 9:00 PM on Friday 19 Dec 2014 (Local Time) from SAZN Reporting Station
Broken Clouds Broken Clouds  
Wind Chill: 22°   Ceiling: 10000
Heat Index: 22°   Visibility: 6mi
Dew Point:   Wind: 13mph
Humidity: 31%   Direction: 250°WSW
Pressure: 29.59"   Gusts: NA
Location:  40.23°S, 62.59°W
Report Text: SAZN 200000Z 25011KT 9999 SCT045 BKN10022/04 Q1002
Loading
Personal Weather Stations






























Interactive Weather Map New forecast layout! Learn more

10-Day Weather Forecast

Advertisements
Track Severe Weather on mobile